sensor_id;sensor_type;location;lat;lon;timestamp;P1;durP1;ratioP1;P2;durP2;ratioP2
15915;SDS011;8057;47.830;-3.870;2022-10-16T00:03:58;4.00;;;1.10;;
15915;SDS011;8057;47.830;-3.870;2022-10-16T00:08:10;5.60;;;1.37;;
15915;SDS011;8057;47.830;-3.870;2022-10-16T00:12:22;7.60;;;1.80;;
15915;SDS011;8057;47.830;-3.870;2022-10-16T00:16:34;5.57;;;1.43;;
15915;SDS011;8057;47.830;-3.870;2022-10-16T00:20:43;4.73;;;1.43;;
15915;SDS011;8057;47.830;-3.870;2022-10-16T00:24:53;4.40;;;1.30;;
15915;SDS011;8057;47.830;-3.870;2022-10-16T00:29:02;4.70;;;1.23;;
15915;SDS011;8057;47.830;-3.870;2022-10-16T00:33:14;3.70;;;0.97;;
15915;SDS011;8057;47.830;-3.870;2022-10-16T00:37:23;5.50;;;1.37;;
15915;SDS011;8057;47.830;-3.870;2022-10-16T00:41:34;2.43;;;1.10;;
15915;SDS011;8057;47.830;-3.870;2022-10-16T00:45:43;4.73;;;1.27;;
15915;SDS011;8057;47.830;-3.870;2022-10-16T00:49:55;3.97;;;1.10;;
15915;SDS011;8057;47.830;-3.870;2022-10-16T00:54:08;7.23;;;1.27;;
15915;SDS011;8057;47.830;-3.870;2022-10-16T00:58:20;4.17;;;1.30;;
15915;SDS011;8057;47.830;-3.870;2022-10-16T01:02:29;2.87;;;1.13;;
15915;SDS011;8057;47.830;-3.870;2022-10-16T01:06:41;4.57;;;0.93;;
15915;SDS011;8057;47.830;-3.870;2022-10-16T01:10:57;3.53;;;1.20;;
15915;SDS011;8057;47.830;-3.870;2022-10-16T01:15:11;4.23;;;1.10;;
15915;SDS011;8057;47.830;-3.870;2022-10-16T01:19:34;2.40;;;1.00;;
15915;SDS011;8057;47.830;-3.870;2022-10-16T01:24:08;3.23;;;1.23;;
15915;SDS011;8057;47.830;-3.870;2022-10-16T01:28:28;4.87;;;1.30;;
15915;SDS011;8057;47.830;-3.870;2022-10-16T01:32:44;5.60;;;1.43;;
15915;SDS011;8057;47.830;-3.870;2022-10-16T01:36:59;4.37;;;1.17;;
15915;SDS011;8057;47.830;-3.870;2022-10-16T01:41:15;2.13;;;0.80;;
15915;SDS011;8057;47.830;-3.870;2022-10-16T01:45:29;4.97;;;1.00;;
15915;SDS011;8057;47.830;-3.870;2022-10-16T01:49:41;2.00;;;0.83;;
15915;SDS011;8057;47.830;-3.870;2022-10-16T01:53:55;2.73;;;0.40;;
15915;SDS011;8057;47.830;-3.870;2022-10-16T01:58:07;2.60;;;0.60;;
15915;SDS011;8057;47.830;-3.870;2022-10-16T02:02:20;1.53;;;0.60;;
15915;SDS011;8057;47.830;-3.870;2022-10-16T02:06:36;3.07;;;0.67;;
15915;SDS011;8057;47.830;-3.870;2022-10-16T02:10:45;0.90;;;0.60;;
15915;SDS011;8057;47.830;-3.870;2022-10-16T02:14:55;3.23;;;0.80;;
15915;SDS011;8057;47.830;-3.870;2022-10-16T02:19:06;0.77;;;0.60;;
15915;SDS011;8057;47.830;-3.870;2022-10-16T02:23:19;0.60;;;0.50;;
15915;SDS011;8057;47.830;-3.870;2022-10-16T02:27:34;1.27;;;0.50;;
15915;SDS011;8057;47.830;-3.870;2022-10-16T02:31:49;1.43;;;0.70;;
15915;SDS011;8057;47.830;-3.870;2022-10-16T02:36:04;1.77;;;0.60;;
15915;SDS011;8057;47.830;-3.870;2022-10-16T02:40:14;3.67;;;0.80;;
15915;SDS011;8057;47.830;-3.870;2022-10-16T02:44:30;2.50;;;0.83;;
15915;SDS011;8057;47.830;-3.870;2022-10-16T02:48:39;1.03;;;0.70;;
15915;SDS011;8057;47.830;-3.870;2022-10-16T02:52:50;2.00;;;0.60;;
15915;SDS011;8057;47.830;-3.870;2022-10-16T02:56:59;1.03;;;0.60;;
15915;SDS011;8057;47.830;-3.870;2022-10-16T03:01:09;1.70;;;0.90;;
15915;SDS011;8057;47.830;-3.870;2022-10-16T03:05:19;3.50;;;0.60;;
15915;SDS011;8057;47.830;-3.870;2022-10-16T03:09:31;1.13;;;0.30;;
15915;SDS011;8057;47.830;-3.870;2022-10-16T03:13:41;2.10;;;0.77;;
15915;SDS011;8057;47.830;-3.870;2022-10-16T03:17:50;2.37;;;0.97;;
15915;SDS011;8057;47.830;-3.870;2022-10-16T03:21:59;0.83;;;0.60;;
15915;SDS011;8057;47.830;-3.870;2022-10-16T03:26:10;1.80;;;0.63;;
15915;SDS011;8057;47.830;-3.870;2022-10-16T03:30:20;1.43;;;0.60;;
15915;SDS011;8057;47.830;-3.870;2022-10-16T03:34:29;0.67;;;0.50;;
15915;SDS011;8057;47.830;-3.870;2022-10-16T03:38:38;1.77;;;0.57;;
15915;SDS011;8057;47.830;-3.870;2022-10-16T03:42:50;2.07;;;0.70;;
15915;SDS011;8057;47.830;-3.870;2022-10-16T03:47:02;1.13;;;0.33;;
15915;SDS011;8057;47.830;-3.870;2022-10-16T03:51:11;1.20;;;0.50;;
15915;SDS011;8057;47.830;-3.870;2022-10-16T03:55:20;2.23;;;0.90;;
15915;SDS011;8057;47.830;-3.870;2022-10-16T03:59:31;2.77;;;0.90;;
15915;SDS011;8057;47.830;-3.870;2022-10-16T04:03:40;1.30;;;0.80;;
15915;SDS011;8057;47.830;-3.870;2022-10-16T04:07:50;1.77;;;0.70;;
15915;SDS011;8057;47.830;-3.870;2022-10-16T04:12:00;1.40;;;0.70;;
15915;SDS011;8057;47.830;-3.870;2022-10-16T04:16:11;1.60;;;0.80;;
15915;SDS011;8057;47.830;-3.870;2022-10-16T04:20:20;1.60;;;0.70;;
15915;SDS011;8057;47.830;-3.870;2022-10-16T04:24:30;2.10;;;1.00;;
15915;SDS011;8057;47.830;-3.870;2022-10-16T04:28:39;2.23;;;1.00;;
15915;SDS011;8057;47.830;-3.870;2022-10-16T04:32:50;2.97;;;0.80;;
15915;SDS011;8057;47.830;-3.870;2022-10-16T04:37:01;1.60;;;0.87;;
15915;SDS011;8057;47.830;-3.870;2022-10-16T04:41:10;4.13;;;1.20;;
15915;SDS011;8057;47.830;-3.870;2022-10-16T04:45:19;2.90;;;0.90;;
15915;SDS011;8057;47.830;-3.870;2022-10-16T04:49:30;4.60;;;1.00;;
15915;SDS011;8057;47.830;-3.870;2022-10-16T04:53:39;1.93;;;1.13;;
15915;SDS011;8057;47.830;-3.870;2022-10-16T04:57:48;4.63;;;1.30;;
15915;SDS011;8057;47.830;-3.870;2022-10-16T05:01:58;1.50;;;1.23;;
15915;SDS011;8057;47.830;-3.870;2022-10-16T05:06:08;4.57;;;0.90;;
15915;SDS011;8057;47.830;-3.870;2022-10-16T05:10:18;4.90;;;1.20;;
15915;SDS011;8057;47.830;-3.870;2022-10-16T05:14:27;2.03;;;1.10;;
15915;SDS011;8057;47.830;-3.870;2022-10-16T05:18:37;1.37;;;0.70;;
15915;SDS011;8057;47.830;-3.870;2022-10-16T05:22:47;1.73;;;0.83;;
15915;SDS011;8057;47.830;-3.870;2022-10-16T05:26:57;1.70;;;1.03;;
15915;SDS011;8057;47.830;-3.870;2022-10-16T05:31:06;1.47;;;0.80;;
15915;SDS011;8057;47.830;-3.870;2022-10-16T05:35:16;2.20;;;0.93;;
15915;SDS011;8057;47.830;-3.870;2022-10-16T05:39:27;3.97;;;1.30;;
15915;SDS011;8057;47.830;-3.870;2022-10-16T05:43:37;2.97;;;1.10;;
15915;SDS011;8057;47.830;-3.870;2022-10-16T05:47:46;3.67;;;1.50;;
15915;SDS011;8057;47.830;-3.870;2022-10-16T05:51:55;2.13;;;1.20;;
15915;SDS011;8057;47.830;-3.870;2022-10-16T05:56:06;1.77;;;1.27;;
15915;SDS011;8057;47.830;-3.870;2022-10-16T06:00:18;3.13;;;1.60;;
15915;SDS011;8057;47.830;-3.870;2022-10-16T06:04:27;2.23;;;1.40;;
15915;SDS011;8057;47.830;-3.870;2022-10-16T06:08:36;2.83;;;1.70;;
15915;SDS011;8057;47.830;-3.870;2022-10-16T06:12:47;4.03;;;1.70;;
15915;SDS011;8057;47.830;-3.870;2022-10-16T06:16:56;1.50;;;1.40;;
15915;SDS011;8057;47.830;-3.870;2022-10-16T06:21:09;4.27;;;1.60;;
15915;SDS011;8057;47.830;-3.870;2022-10-16T06:25:20;3.37;;;1.67;;
15915;SDS011;8057;47.830;-3.870;2022-10-16T06:29:30;3.60;;;1.83;;
15915;SDS011;8057;47.830;-3.870;2022-10-16T06:33:41;2.27;;;1.40;;
15915;SDS011;8057;47.830;-3.870;2022-10-16T06:37:52;3.60;;;1.50;;
15915;SDS011;8057;47.830;-3.870;2022-10-16T06:42:01;3.33;;;1.33;;
15915;SDS011;8057;47.830;-3.870;2022-10-16T06:46:14;1.80;;;1.50;;
15915;SDS011;8057;47.830;-3.870;2022-10-16T06:50:26;3.13;;;1.30;;
15915;SDS011;8057;47.830;-3.870;2022-10-16T06:54:35;3.17;;;1.60;;
15915;SDS011;8057;47.830;-3.870;2022-10-16T06:58:48;2.47;;;1.33;;
15915;SDS011;8057;47.830;-3.870;2022-10-16T07:02:59;1.57;;;1.20;;
15915;SDS011;8057;47.830;-3.870;2022-10-16T07:07:09;1.67;;;1.57;;
15915;SDS011;8057;47.830;-3.870;2022-10-16T07:11:19;3.47;;;1.63;;
15915;SDS011;8057;47.830;-3.870;2022-10-16T07:15:30;2.80;;;1.70;;
15915;SDS011;8057;47.830;-3.870;2022-10-16T07:19:41;3.93;;;2.13;;
15915;SDS011;8057;47.830;-3.870;2022-10-16T07:23:50;3.77;;;1.67;;
15915;SDS011;8057;47.830;-3.870;2022-10-16T07:28:00;2.83;;;1.70;;
15915;SDS011;8057;47.830;-3.870;2022-10-16T07:32:09;3.70;;;1.73;;
15915;SDS011;8057;47.830;-3.870;2022-10-16T07:36:20;2.93;;;1.53;;
15915;SDS011;8057;47.830;-3.870;2022-10-16T07:40:29;2.93;;;1.50;;
15915;SDS011;8057;47.830;-3.870;2022-10-16T07:44:39;2.77;;;1.80;;
15915;SDS011;8057;47.830;-3.870;2022-10-16T07:48:50;4.47;;;1.63;;
15915;SDS011;8057;47.830;-3.870;2022-10-16T07:53:00;3.57;;;1.80;;
15915;SDS011;8057;47.830;-3.870;2022-10-16T07:57:10;5.77;;;1.97;;
15915;SDS011;8057;47.830;-3.870;2022-10-16T08:01:25;5.47;;;2.10;;
15915;SDS011;8057;47.830;-3.870;2022-10-16T08:05:35;7.63;;;1.97;;
15915;SDS011;8057;47.830;-3.870;2022-10-16T08:09:48;4.40;;;1.87;;
15915;SDS011;8057;47.830;-3.870;2022-10-16T08:13:58;4.43;;;1.93;;
15915;SDS011;8057;47.830;-3.870;2022-10-16T08:18:09;4.43;;;1.80;;
15915;SDS011;8057;47.830;-3.870;2022-10-16T08:22:19;5.60;;;2.30;;
15915;SDS011;8057;47.830;-3.870;2022-10-16T08:26:30;5.23;;;2.77;;
15915;SDS011;8057;47.830;-3.870;2022-10-16T08:30:39;6.57;;;2.23;;
15915;SDS011;8057;47.830;-3.870;2022-10-16T08:34:48;4.73;;;2.30;;
15915;SDS011;8057;47.830;-3.870;2022-10-16T08:38:58;4.13;;;1.90;;
15915;SDS011;8057;47.830;-3.870;2022-10-16T08:43:25;6.23;;;2.43;;
15915;SDS011;8057;47.830;-3.870;2022-10-16T08:47:45;6.13;;;2.87;;
15915;SDS011;8057;47.830;-3.870;2022-10-16T08:52:02;8.03;;;2.73;;
15915;SDS011;8057;47.830;-3.870;2022-10-16T08:56:11;8.57;;;2.43;;
15915;SDS011;8057;47.830;-3.870;2022-10-16T09:00:22;11.03;;;2.70;;
15915;SDS011;8057;47.830;-3.870;2022-10-16T09:09:31;5.30;;;1.50;;
15915;SDS011;8057;47.830;-3.870;2022-10-16T09:14:00;6.33;;;2.33;;
15915;SDS011;8057;47.830;-3.870;2022-10-16T09:18:21;8.20;;;2.30;;
15915;SDS011;8057;47.830;-3.870;2022-10-16T09:23:10;9.13;;;2.30;;
15915;SDS011;8057;47.830;-3.870;2022-10-16T09:27:25;7.97;;;1.73;;
15915;SDS011;8057;47.830;-3.870;2022-10-16T09:31:36;6.73;;;1.57;;
15915;SDS011;8057;47.830;-3.870;2022-10-16T09:35:53;5.97;;;1.47;;
15915;SDS011;8057;47.830;-3.870;2022-10-16T09:40:06;6.17;;;1.63;;
15915;SDS011;8057;47.830;-3.870;2022-10-16T09:44:21;7.33;;;1.80;;
15915;SDS011;8057;47.830;-3.870;2022-10-16T09:48:36;4.83;;;1.27;;
15915;SDS011;8057;47.830;-3.870;2022-10-16T09:52:49;5.47;;;1.30;;
15915;SDS011;8057;47.830;-3.870;2022-10-16T09:57:07;5.73;;;1.47;;
15915;SDS011;8057;47.830;-3.870;2022-10-16T10:01:22;8.63;;;1.83;;
15915;SDS011;8057;47.830;-3.870;2022-10-16T10:05:38;6.97;;;1.47;;
15915;SDS011;8057;47.830;-3.870;2022-10-16T10:09:54;4.87;;;1.37;;
15915;SDS011;8057;47.830;-3.870;2022-10-16T10:18:57;4.40;;;1.33;;
15915;SDS011;8057;47.830;-3.870;2022-10-16T10:23:19;4.87;;;1.40;;
15915;SDS011;8057;47.830;-3.870;2022-10-16T10:27:35;5.37;;;1.63;;
15915;SDS011;8057;47.830;-3.870;2022-10-16T10:31:53;2.00;;;1.07;;
15915;SDS011;8057;47.830;-3.870;2022-10-16T10:36:16;6.43;;;1.40;;
15915;SDS011;8057;47.830;-3.870;2022-10-16T10:40:37;6.53;;;1.50;;
15915;SDS011;8057;47.830;-3.870;2022-10-16T10:45:00;9.23;;;1.67;;
15915;SDS011;8057;47.830;-3.870;2022-10-16T10:49:37;5.73;;;1.40;;
15915;SDS011;8057;47.830;-3.870;2022-10-16T10:53:56;5.40;;;2.00;;
15915;SDS011;8057;47.830;-3.870;2022-10-16T10:58:29;8.83;;;1.83;;
15915;SDS011;8057;47.830;-3.870;2022-10-16T11:02:53;8.70;;;1.93;;
15915;SDS011;8057;47.830;-3.870;2022-10-16T11:07:13;12.17;;;2.50;;
15915;SDS011;8057;47.830;-3.870;2022-10-16T11:11:30;10.73;;;1.87;;
15915;SDS011;8057;47.830;-3.870;2022-10-16T11:15:44;11.13;;;2.57;;
15915;SDS011;8057;47.830;-3.870;2022-10-16T11:19:59;10.33;;;2.70;;
15915;SDS011;8057;47.830;-3.870;2022-10-16T11:24:20;7.03;;;2.03;;
15915;SDS011;8057;47.830;-3.870;2022-10-16T11:28:34;10.20;;;2.47;;
15915;SDS011;8057;47.830;-3.870;2022-10-16T11:33:02;11.63;;;2.53;;
15915;SDS011;8057;47.830;-3.870;2022-10-16T11:37:20;12.37;;;2.30;;
15915;SDS011;8057;47.830;-3.870;2022-10-16T11:41:49;8.93;;;1.97;;
15915;SDS011;8057;47.830;-3.870;2022-10-16T11:46:04;7.27;;;1.97;;
15915;SDS011;8057;47.830;-3.870;2022-10-16T11:50:23;7.90;;;1.90;;
15915;SDS011;8057;47.830;-3.870;2022-10-16T11:54:39;6.77;;;1.97;;
15915;SDS011;8057;47.830;-3.870;2022-10-16T11:58:55;12.57;;;2.00;;
15915;SDS011;8057;47.830;-3.870;2022-10-16T12:03:10;13.37;;;2.27;;
15915;SDS011;8057;47.830;-3.870;2022-10-16T12:07:27;13.30;;;2.63;;
15915;SDS011;8057;47.830;-3.870;2022-10-16T12:11:45;11.17;;;2.57;;
15915;SDS011;8057;47.830;-3.870;2022-10-16T12:16:03;7.90;;;2.33;;
15915;SDS011;8057;47.830;-3.870;2022-10-16T12:20:30;17.87;;;3.07;;
15915;SDS011;8057;47.830;-3.870;2022-10-16T12:24:42;14.40;;;3.07;;
15915;SDS011;8057;47.830;-3.870;2022-10-16T12:28:53;12.60;;;3.20;;
15915;SDS011;8057;47.830;-3.870;2022-10-16T12:33:04;13.23;;;3.00;;
15915;SDS011;8057;47.830;-3.870;2022-10-16T12:37:19;12.63;;;2.70;;
15915;SDS011;8057;47.830;-3.870;2022-10-16T12:41:33;18.27;;;3.53;;
15915;SDS011;8057;47.830;-3.870;2022-10-16T12:45:48;13.53;;;3.23;;
15915;SDS011;8057;47.830;-3.870;2022-10-16T12:50:23;14.97;;;3.40;;
15915;SDS011;8057;47.830;-3.870;2022-10-16T12:54:38;14.30;;;3.67;;
15915;SDS011;8057;47.830;-3.870;2022-10-16T12:58:52;13.37;;;4.10;;
15915;SDS011;8057;47.830;-3.870;2022-10-16T13:07:53;15.60;;;3.97;;
15915;SDS011;8057;47.830;-3.870;2022-10-16T13:12:17;10.33;;;3.07;;
15915;SDS011;8057;47.830;-3.870;2022-10-16T13:16:41;12.07;;;3.10;;
15915;SDS011;8057;47.830;-3.870;2022-10-16T13:21:11;9.97;;;3.00;;
15915;SDS011;8057;47.830;-3.870;2022-10-16T13:25:37;5.33;;;2.30;;
15915;SDS011;8057;47.830;-3.870;2022-10-16T13:30:08;9.37;;;2.07;;
15915;SDS011;8057;47.830;-3.870;2022-10-16T13:34:25;6.40;;;2.03;;
15915;SDS011;8057;47.830;-3.870;2022-10-16T13:38:42;9.83;;;2.23;;
15915;SDS011;8057;47.830;-3.870;2022-10-16T13:42:54;7.37;;;1.87;;
15915;SDS011;8057;47.830;-3.870;2022-10-16T13:47:04;5.27;;;1.80;;
15915;SDS011;8057;47.830;-3.870;2022-10-16T13:51:13;10.13;;;1.97;;
15915;SDS011;8057;47.830;-3.870;2022-10-16T13:55:26;7.50;;;2.07;;
15915;SDS011;8057;47.830;-3.870;2022-10-16T13:59:36;9.37;;;2.37;;
15915;SDS011;8057;47.830;-3.870;2022-10-16T14:03:47;7.23;;;1.90;;
15915;SDS011;8057;47.830;-3.870;2022-10-16T14:08:00;9.77;;;2.30;;
15915;SDS011;8057;47.830;-3.870;2022-10-16T14:12:15;10.07;;;1.90;;
15915;SDS011;8057;47.830;-3.870;2022-10-16T14:16:28;10.77;;;2.17;;
15915;SDS011;8057;47.830;-3.870;2022-10-16T14:21:05;8.53;;;2.73;;
15915;SDS011;8057;47.830;-3.870;2022-10-16T14:25:21;8.27;;;1.93;;
15915;SDS011;8057;47.830;-3.870;2022-10-16T14:29:35;7.80;;;2.20;;
15915;SDS011;8057;47.830;-3.870;2022-10-16T14:33:47;10.97;;;2.60;;
15915;SDS011;8057;47.830;-3.870;2022-10-16T14:38:17;10.27;;;2.50;;
15915;SDS011;8057;47.830;-3.870;2022-10-16T14:42:32;10.30;;;2.00;;
15915;SDS011;8057;47.830;-3.870;2022-10-16T14:46:56;8.83;;;2.13;;
15915;SDS011;8057;47.830;-3.870;2022-10-16T14:51:34;9.90;;;1.83;;
15915;SDS011;8057;47.830;-3.870;2022-10-16T14:55:43;11.53;;;2.27;;
15915;SDS011;8057;47.830;-3.870;2022-10-16T14:59:55;9.00;;;1.77;;
15915;SDS011;8057;47.830;-3.870;2022-10-16T15:04:22;13.33;;;2.93;;
15915;SDS011;8057;47.830;-3.870;2022-10-16T15:08:33;14.23;;;2.70;;
15915;SDS011;8057;47.830;-3.870;2022-10-16T15:12:43;12.57;;;2.53;;
15915;SDS011;8057;47.830;-3.870;2022-10-16T15:16:52;14.93;;;2.87;;
15915;SDS011;8057;47.830;-3.870;2022-10-16T15:21:05;12.50;;;2.70;;
15915;SDS011;8057;47.830;-3.870;2022-10-16T15:25:36;10.97;;;2.63;;
15915;SDS011;8057;47.830;-3.870;2022-10-16T15:29:49;12.43;;;2.97;;
15915;SDS011;8057;47.830;-3.870;2022-10-16T15:33:59;11.90;;;2.60;;
15915;SDS011;8057;47.830;-3.870;2022-10-16T15:43:08;9.83;;;2.43;;
15915;SDS011;8057;47.830;-3.870;2022-10-16T15:47:33;11.23;;;3.23;;
15915;SDS011;8057;47.830;-3.870;2022-10-16T15:51:51;14.77;;;3.23;;
15915;SDS011;8057;47.830;-3.870;2022-10-16T15:56:01;12.93;;;3.40;;
15915;SDS011;8057;47.830;-3.870;2022-10-16T16:00:15;15.83;;;3.60;;
15915;SDS011;8057;47.830;-3.870;2022-10-16T16:04:43;13.90;;;3.47;;
15915;SDS011;8057;47.830;-3.870;2022-10-16T16:09:12;15.43;;;3.37;;
15915;SDS011;8057;47.830;-3.870;2022-10-16T16:13:27;12.77;;;2.97;;
15915;SDS011;8057;47.830;-3.870;2022-10-16T16:17:38;14.83;;;3.03;;
15915;SDS011;8057;47.830;-3.870;2022-10-16T16:22:15;14.83;;;3.17;;
15915;SDS011;8057;47.830;-3.870;2022-10-16T16:26:34;12.93;;;3.27;;
15915;SDS011;8057;47.830;-3.870;2022-10-16T16:31:00;11.93;;;3.70;;
15915;SDS011;8057;47.830;-3.870;2022-10-16T16:35:11;15.30;;;3.77;;
15915;SDS011;8057;47.830;-3.870;2022-10-16T16:39:23;15.57;;;3.77;;
15915;SDS011;8057;47.830;-3.870;2022-10-16T16:43:36;12.77;;;3.90;;
15915;SDS011;8057;47.830;-3.870;2022-10-16T16:47:46;19.07;;;4.40;;
15915;SDS011;8057;47.830;-3.870;2022-10-16T16:52:12;15.87;;;3.90;;
15915;SDS011;8057;47.830;-3.870;2022-10-16T16:56:21;18.93;;;4.70;;
15915;SDS011;8057;47.830;-3.870;2022-10-16T17:01:12;12.60;;;3.60;;
15915;SDS011;8057;47.830;-3.870;2022-10-16T17:21:18;12.87;;;3.40;;
15915;SDS011;8057;47.830;-3.870;2022-10-16T17:26:12;12.60;;;4.20;;
15915;SDS011;8057;47.830;-3.870;2022-10-16T17:30:27;15.63;;;4.27;;
15915;SDS011;8057;47.830;-3.870;2022-10-16T17:39:45;18.13;;;4.30;;
15915;SDS011;8057;47.830;-3.870;2022-10-16T17:43:57;17.10;;;4.33;;
15915;SDS011;8057;47.830;-3.870;2022-10-16T17:48:08;14.03;;;3.90;;
15915;SDS011;8057;47.830;-3.870;2022-10-16T17:52:18;15.93;;;4.37;;
15915;SDS011;8057;47.830;-3.870;2022-10-16T17:56:30;16.27;;;4.30;;
15915;SDS011;8057;47.830;-3.870;2022-10-16T18:00:39;19.17;;;4.77;;
15915;SDS011;8057;47.830;-3.870;2022-10-16T18:04:49;17.53;;;4.77;;
15915;SDS011;8057;47.830;-3.870;2022-10-16T18:09:00;14.53;;;4.20;;
15915;SDS011;8057;47.830;-3.870;2022-10-16T18:13:12;20.47;;;5.67;;
15915;SDS011;8057;47.830;-3.870;2022-10-16T18:17:36;15.03;;;3.73;;
15915;SDS011;8057;47.830;-3.870;2022-10-16T18:21:45;18.17;;;4.90;;
15915;SDS011;8057;47.830;-3.870;2022-10-16T18:25:55;16.77;;;4.67;;
15915;SDS011;8057;47.830;-3.870;2022-10-16T18:30:06;16.70;;;4.80;;
15915;SDS011;8057;47.830;-3.870;2022-10-16T18:34:16;13.33;;;4.30;;
15915;SDS011;8057;47.830;-3.870;2022-10-16T18:38:26;21.50;;;5.00;;
15915;SDS011;8057;47.830;-3.870;2022-10-16T18:42:35;15.97;;;4.80;;
15915;SDS011;8057;47.830;-3.870;2022-10-16T18:46:47;16.33;;;4.40;;
15915;SDS011;8057;47.830;-3.870;2022-10-16T18:51:05;19.17;;;4.77;;
15915;SDS011;8057;47.830;-3.870;2022-10-16T18:55:16;20.87;;;4.10;;
15915;SDS011;8057;47.830;-3.870;2022-10-16T18:59:26;17.43;;;5.13;;
15915;SDS011;8057;47.830;-3.870;2022-10-16T19:03:37;26.33;;;5.23;;
15915;SDS011;8057;47.830;-3.870;2022-10-16T19:07:47;19.70;;;4.53;;
15915;SDS011;8057;47.830;-3.870;2022-10-16T19:11:56;18.40;;;5.50;;
15915;SDS011;8057;47.830;-3.870;2022-10-16T19:16:08;14.07;;;4.70;;
15915;SDS011;8057;47.830;-3.870;2022-10-16T19:20:28;18.03;;;4.63;;
15915;SDS011;8057;47.830;-3.870;2022-10-16T19:24:37;23.90;;;4.73;;
15915;SDS011;8057;47.830;-3.870;2022-10-16T19:28:47;21.70;;;5.10;;
15915;SDS011;8057;47.830;-3.870;2022-10-16T21:32:46;21.50;;;4.77;;
15915;SDS011;8057;47.830;-3.870;2022-10-16T21:37:14;21.10;;;4.50;;
15915;SDS011;8057;47.830;-3.870;2022-10-16T22:10:44;15.10;;;4.23;;
15915;SDS011;8057;47.830;-3.870;2022-10-16T22:15:16;16.13;;;4.00;;
15915;SDS011;8057;47.830;-3.870;2022-10-16T22:24:35;17.50;;;4.33;;
15915;SDS011;8057;47.830;-3.870;2022-10-16T22:28:46;23.67;;;4.93;;
15915;SDS011;8057;47.830;-3.870;2022-10-16T22:32:55;22.63;;;4.17;;
15915;SDS011;8057;47.830;-3.870;2022-10-16T22:37:04;20.30;;;5.00;;
15915;SDS011;8057;47.830;-3.870;2022-10-16T22:41:26;28.00;;;4.93;;
15915;SDS011;8057;47.830;-3.870;2022-10-16T22:45:36;22.90;;;4.77;;
15915;SDS011;8057;47.830;-3.870;2022-10-16T22:49:47;22.00;;;4.50;;
15915;SDS011;8057;47.830;-3.870;2022-10-16T22:53:57;19.90;;;4.33;;
15915;SDS011;8057;47.830;-3.870;2022-10-16T22:58:08;17.17;;;3.77;;
15915;SDS011;8057;47.830;-3.870;2022-10-16T23:02:18;17.33;;;3.80;;
15915;SDS011;8057;47.830;-3.870;2022-10-16T23:06:30;19.37;;;4.70;;
15915;SDS011;8057;47.830;-3.870;2022-10-16T23:10:40;22.93;;;4.07;;
15915;SDS011;8057;47.830;-3.870;2022-10-16T23:14:53;23.70;;;3.77;;
15915;SDS011;8057;47.830;-3.870;2022-10-16T23:23:34;20.93;;;3.43;;
15915;SDS011;8057;47.830;-3.870;2022-10-16T23:28:11;22.47;;;3.97;;
15915;SDS011;8057;47.830;-3.870;2022-10-16T23:37:26;17.73;;;3.87;;
15915;SDS011;8057;47.830;-3.870;2022-10-16T23:41:37;17.77;;;3.80;;
15915;SDS011;8057;47.830;-3.870;2022-10-16T23:45:47;13.60;;;3.63;;
